Time;durP1;ratioP1;P1;durP2;ratioP2;P2;SDS_P1;SDS_P2;PMS_P1;PMS_P2;Temp;Humidity;BMP_temperature;BMP_pressure;BME280_temperature;BME280_humidity;BME280_pressure;Samples;Min_cycle;Max_cycle;Signal;HPM_P1;HPM_P2
2021/04/01 00:01:52;;;;;;;39.47;21.23;;;;;;;15.38;55.33;101867.06;10572730;28;20468;-83
2021/04/01 00:06:52;;;;;;;39.42;20.48;;;;;;;15.22;56.17;101868.00;10542633;28;20059;-81
2021/04/01 00:11:53;;;;;;;36.83;20.27;;;;;;;15.48;57.70;101922.88;10547530;28;20063;-82
2021/04/01 00:16:53;;;;;;;33.05;19.77;;;;;;;15.41;58.01;101912.66;10544146;28;20027;-83
2021/04/01 00:21:54;;;;;;;37.88;20.63;;;;;;;15.27;57.63;101907.00;10548203;28;20046;-83
2021/04/01 00:26:54;;;;;;;38.72;21.38;;;;;;;15.19;58.62;101901.44;10542228;28;20034;-82
2021/04/01 00:31:55;;;;;;;37.72;20.05;;;;;;;15.20;57.59;101913.88;10509442;28;20396;-80
2021/04/01 00:36:55;;;;;;;42.47;21.38;;;;;;;15.11;58.50;101905.19;10558505;28;20091;-81
2021/04/01 00:41:56;;;;;;;37.13;20.30;;;;;;;14.91;58.49;101885.41;10539747;28;20039;-80
2021/04/01 00:46:56;;;;;;;35.13;20.00;;;;;;;14.86;59.47;101887.63;10553519;28;20124;-82
2021/04/01 00:51:57;;;;;;;34.55;19.48;;;;;;;14.68;59.64;101877.25;10544771;28;20526;-82
2021/04/01 00:56:58;;;;;;;40.05;20.95;;;;;;;14.90;59.53;101904.81;10558953;28;20091;-83
2021/04/01 01:02:04;;;;;;;36.78;20.00;;;;;;;14.84;59.24;101900.81;10550898;28;20035;-82
2021/04/01 01:07:05;;;;;;;35.95;19.55;;;;;;;14.87;59.66;101889.22;10511045;28;20549;-82
2021/04/01 01:12:06;;;;;;;37.25;20.20;;;;;;;14.50;59.84;101848.88;10525223;28;20047;-80
2021/04/01 01:17:06;;;;;;;34.33;19.00;;;;;;;14.58;60.02;101866.97;10549861;28;20036;-82
2021/04/01 01:22:08;;;;;;;41.22;21.02;;;;;;;14.69;60.73;101911.44;10533194;28;20448;-80
2021/04/01 01:27:08;;;;;;;37.60;19.95;;;;;;;14.69;58.12;101889.69;10557637;28;20088;-83
2021/04/01 01:32:11;;;;;;;40.45;21.50;;;;;;;14.71;60.07;101898.28;10503667;28;20084;-83
2021/04/01 01:37:13;;;;;;;38.88;21.50;;;;;;;14.65;59.98;101899.75;10537372;28;20043;-84
2021/04/01 01:42:13;;;;;;;36.10;19.98;;;;;;;14.47;59.85;101884.97;10522537;28;20038;-81
2021/04/01 01:47:14;;;;;;;40.05;20.80;;;;;;;14.40;59.61;101884.84;10557135;28;20042;-83
2021/04/01 01:52:14;;;;;;;37.05;20.35;;;;;;;14.41;58.21;101889.91;10576857;28;20078;-82
2021/04/01 01:57:15;;;;;;;37.78;20.58;;;;;;;14.33;58.58;101897.16;10557354;28;20768;-83
2021/04/01 02:02:15;;;;;;;34.22;19.38;;;;;;;13.94;58.66;101845.47;10518735;28;20453;-81
2021/04/01 02:07:16;;;;;;;39.03;21.08;;;;;;;14.11;59.58;101895.13;10559168;28;20105;-82
2021/04/01 02:12:17;;;;;;;37.20;20.13;;;;;;;13.63;60.49;101840.19;10560509;28;20071;-82
2021/04/01 02:17:21;;;;;;;37.75;20.48;;;;;;;13.87;60.81;101888.81;10565811;28;20032;-81
2021/04/01 02:22:21;;;;;;;39.15;20.67;;;;;;;13.52;61.79;101857.03;10529519;28;20051;-82
2021/04/01 02:27:22;;;;;;;30.27;18.60;;;;;;;13.68;62.49;101896.97;10541908;28;20447;-81
2021/04/01 02:32:22;;;;;;;34.58;19.13;;;;;;;13.66;62.68;101899.25;10563930;28;20190;-81
2021/04/01 02:37:23;;;;;;;37.72;20.10;;;;;;;13.52;63.37;101895.06;10539683;28;20028;-80
2021/04/01 02:42:23;;;;;;;32.42;19.67;;;;;;;13.44;63.86;101904.19;10566807;28;20032;-79
2021/04/01 02:47:24;;;;;;;34.92;19.60;;;;;;;13.15;64.17;101869.34;10556799;27;20051;-79
2021/04/01 02:52:24;;;;;;;35.05;18.95;;;;;;;13.16;64.04;101865.47;10568933;28;20028;-78
2021/04/01 02:57:25;;;;;;;36.63;20.90;;;;;;;12.96;64.48;101851.81;10556917;28;20073;-80
2021/04/01 03:02:27;;;;;;;36.42;19.60;;;;;;;13.13;64.81;101882.47;10553136;28;20043;-79
2021/04/01 03:07:27;;;;;;;37.40;20.20;;;;;;;12.65;65.49;101831.69;10534113;28;20389;-80
2021/04/01 03:12:28;;;;;;;30.80;18.80;;;;;;;12.95;65.75;101882.81;10521362;28;20044;-79
2021/04/01 03:17:28;;;;;;;32.88;19.90;;;;;;;12.83;66.56;101896.47;10508794;28;20043;-79
2021/04/01 03:22:29;;;;;;;36.72;19.33;;;;;;;12.75;66.44;101878.44;10518405;28;20064;-79
2021/04/01 03:27:30;;;;;;;36.60;20.08;;;;;;;12.48;66.62;101864.53;10516918;28;20123;-79
2021/04/01 03:32:31;;;;;;;44.63;23.35;;;;;;;12.72;66.43;101914.38;10521674;28;20033;-81
2021/04/01 03:37:33;;;;;;;45.43;21.77;;;;;;;12.50;65.80;101870.41;10515906;28;20044;-81
2021/04/01 03:42:36;;;;;;;46.10;25.83;;;;;;;12.75;65.51;101900.13;10505606;28;20032;-79
2021/04/01 03:47:38;;;;;;;44.38;25.25;;;;;;;12.77;64.89;101892.41;10510457;28;20366;-80
2021/04/01 03:52:39;;;;;;;44.25;23.85;;;;;;;13.10;64.47;101938.25;10509635;28;20469;-83
2021/04/01 03:57:41;;;;;;;45.40;24.13;;;;;;;13.10;64.09;101939.03;10511138;28;20048;-81
2021/04/01 04:02:53;;;;;;;48.72;27.38;;;;;;;12.72;64.21;101889.97;10514784;28;20430;-84
2021/04/01 04:18:09;;;;;;;;;;;;;;;12.94;66.05;101940.94;10540549;28;20283;-83
2021/04/01 04:23:12;;;;;;;46.15;25.83;;;;;;;12.84;66.34;101942.25;10578199;28;19963;-83
2021/04/01 04:33:13;;;;;;;43.97;23.42;;;;;;;12.64;67.29;101944.03;10569175;28;20140;-81
2021/04/01 04:38:14;;;;;;;45.67;25.25;;;;;;;12.03;67.61;101871.06;10568428;28;20551;-78
2021/04/01 04:43:14;;;;;;;41.60;25.13;;;;;;;12.38;68.29;101940.97;10562602;28;20395;-79
2021/04/01 04:48:14;;;;;;;49.80;27.58;;;;;;;12.31;68.41;101959.75;10548170;28;20035;-79
2021/04/01 04:53:15;;;;;;;47.58;24.48;;;;;;;11.94;69.24;101908.34;10557745;28;20036;-81
2021/04/01 04:58:24;;;;;;;46.08;25.08;;;;;;;11.94;69.42;101916.47;10555312;28;20072;-81
2021/04/01 05:08:43;;;;;;;48.80;24.33;;;;;;;11.53;71.27;101907.47;10556631;28;20132;-81
2021/04/01 05:13:44;;;;;;;58.92;33.85;;;;;;;11.81;71.14;101951.69;10552722;28;20503;-81
2021/04/01 05:18:46;;;;;;;49.20;26.45;;;;;;;11.43;71.09;101920.31;10555851;28;20032;-78
2021/04/01 05:23:50;;;;;;;45.78;24.92;;;;;;;10.86;71.12;101837.28;10564606;28;20373;-81
2021/04/01 05:28:53;;;;;;;52.67;24.70;;;;;;;11.57;71.08;101947.06;10556812;28;20606;-78
2021/04/01 05:33:54;;;;;;;43.97;23.85;;;;;;;11.69;71.50;101976.06;10554841;28;20043;-84
2021/04/01 05:38:58;;;;;;;47.45;24.52;;;;;;;11.63;71.80;101966.56;10560656;28;20059;-83
2021/04/01 06:05:10;;;;;;;39.80;22.58;;;;;;;12.01;70.64;102003.38;10540989;28;20059;-81
2021/04/01 06:10:12;;;;;;;39.78;21.90;;;;;;;12.07;70.24;101985.78;10532804;28;20035;-83
2021/04/01 06:15:13;;;;;;;38.40;21.88;;;;;;;12.38;70.13;102006.06;10537202;28;20036;-83
2021/04/01 06:20:15;;;;;;;38.00;21.30;;;;;;;12.26;69.15;101950.72;10557633;28;20127;-83
2021/04/01 06:25:16;;;;;;;38.58;21.52;;;;;;;12.66;69.29;101996.00;10552394;28;20475;-82
2021/04/01 06:30:29;;;;;;;44.88;22.48;;;;;;;12.83;68.81;101999.56;10537040;28;20043;-80
2021/04/01 06:40:43;;;;;;;43.90;21.30;;;;;;;13.23;66.97;102004.13;10541140;28;19937;-80
2021/04/01 06:45:58;;;;;;;36.92;19.25;;;;;;;13.39;66.23;101999.50;10538341;28;20437;-78
2021/04/01 06:51:06;;;;;;;37.10;20.20;;;;;;;13.85;64.59;102021.59;10547155;28;20044;-80
2021/04/01 07:02:03;;;;;;;38.97;22.25;;;;;;;14.04;63.59;101995.59;10563712;28;20039;-79
2021/04/01 07:06:37;;;;;;;49.15;26.10;;;;;;;14.03;64.00;101988.59;10537369;27;20044;-81
2021/04/01 07:11:42;;;;;;;45.60;26.67;;;;;;;14.63;63.24;102040.00;10553953;28;20481;-79
2021/04/01 07:48:19;;;;;;;64.13;39.00;;;;;;;15.08;63.47;102052.97;10540699;28;20114;-81
2021/04/01 07:53:24;;;;;;;69.45;37.28;;;;;;;15.31;62.95;102065.81;10544758;28;20503;-82
2021/04/01 08:08:45;;;;;;;62.58;33.17;;;;;;;16.66;59.18;102077.28;10551237;28;20484;-80
2021/04/01 08:13:55;;;;;;;60.33;31.00;;;;;;;18.82;52.29;102080.72;10541901;28;20107;-78
2021/04/01 08:18:59;;;;;;;64.18;34.55;;;;;;;19.97;45.82;101993.06;10559745;28;20031;-80
2021/04/01 08:24:05;;;;;;;61.78;34.55;;;;;;;21.39;43.20;102040.25;10535783;28;20051;-81
2021/04/01 08:30:24;;;;;;;68.90;38.40;;;;;;;21.71;42.42;102077.75;10525596;28;20097;-82
2021/04/01 08:34:47;;;;;;;67.78;41.50;;;;;;;22.60;39.68;102054.03;10535968;28;20903;-83
2021/04/01 08:39:48;;;;;;;71.32;40.58;;;;;;;23.08;38.74;102094.38;10529996;28;20032;-78
2021/04/01 08:45:21;;;;;;;69.97;43.83;;;;;;;22.92;39.48;102096.94;10535558;28;20492;-78
2021/04/01 08:50:46;;;;;;;73.20;46.88;;;;;;;22.32;41.35;102111.03;10559002;28;20089;-79
2021/04/01 08:55:55;;;;;;;76.00;47.47;;;;;;;22.82;39.70;102108.88;10550611;28;20054;-81
2021/04/01 09:01:10;;;;;;;80.35;48.70;;;;;;;22.49;39.68;102114.00;10545765;28;20032;-80
2021/04/01 09:06:13;;;;;;;83.95;50.38;;;;;;;23.64;36.92;102125.06;10556591;28;20081;-77
2021/04/01 09:11:14;;;;;;;82.90;50.50;;;;;;;24.18;35.24;102079.19;10518107;28;20553;-79
2021/04/01 09:16:20;;;;;;;;;;;;;;;23.83;36.04;102125.59;10508737;28;20052;-80
2021/04/01 09:21:30;;;;;;;79.45;50.05;;;;;;;24.49;34.86;102103.91;10489231;28;19916;-81
2021/04/01 09:26:31;;;;;;;73.90;48.80;;;;;;;24.50;35.11;102116.50;10511314;28;20550;-82
2021/04/01 09:31:43;;;;;;;85.13;53.67;;;;;;;23.96;35.97;102123.00;10487557;28;20032;-82
2021/04/01 09:36:45;;;;;;;73.18;49.45;;;;;;;24.14;36.25;102097.81;10504387;28;20092;-82
2021/04/01 09:41:47;;;;;;;85.57;53.97;;;;;;;23.98;35.99;102126.88;10486843;28;20067;-82
2021/04/01 09:47:34;;;;;;;86.75;53.03;;;;;;;24.09;36.39;102125.94;10502975;28;20040;-81
2021/04/01 09:52:35;;;;;;;81.38;54.90;;;;;;;24.08;37.08;102135.41;10499433;28;20024;-81
2021/04/01 09:57:46;;;;;;;77.57;53.03;;;;;;;25.77;33.80;102143.75;10499722;28;20485;-81
2021/04/01 10:02:58;;;;;;;77.88;52.45;;;;;;;26.29;31.99;102117.88;10493977;28;20035;-82
2021/04/01 10:08:00;;;;;;;72.32;49.65;;;;;;;25.73;32.35;102143.84;10506245;28;20126;-81
2021/04/01 10:13:00;;;;;;;76.22;50.47;;;;;;;24.90;33.68;102111.72;10492258;28;20040;-80
2021/04/01 10:18:03;;;;;;;77.97;52.07;;;;;;;24.91;33.27;102148.47;10510723;28;20409;-81
2021/04/01 10:23:05;;;;;;;76.65;53.05;;;;;;;24.56;34.28;102114.81;10491349;28;20051;-81
2021/04/01 10:28:12;;;;;;;79.93;51.20;;;;;;;24.96;33.03;102142.44;10508391;28;20375;-82
2021/04/01 10:33:19;;;;;;;73.00;50.00;;;;;;;24.95;33.66;102158.22;10510284;28;20082;-80
2021/04/01 10:38:20;;;;;;;85.60;55.13;;;;;;;24.32;35.39;102128.66;10507277;28;20043;-81
2021/04/01 10:43:21;;;;;;;80.03;51.08;;;;;;;24.15;36.18;102146.31;10510418;28;20128;-82
2021/04/01 10:48:29;;;;;;;71.63;46.25;;;;;;;24.41;33.63;102120.59;10527373;28;20032;-81
2021/04/01 10:53:31;;;;;;;57.80;35.08;;;;;;;23.43;36.09;102164.03;10514678;28;20040;-78
2021/04/01 10:58:32;;;;;;;59.25;30.95;;;;;;;23.10;36.77;102158.19;10520284;28;20024;-81
2021/04/01 11:03:40;;;;;;;47.88;25.67;;;;;;;22.58;37.38;102155.63;10507432;28;20035;-80
2021/04/01 11:08:50;;;;;;;39.40;21.52;;;;;;;22.59;37.00;102181.97;10502963;28;20051;-80
2021/04/01 11:13:51;;;;;;;43.08;20.27;;;;;;;22.10;38.38;102170.22;10501513;28;20047;-82
2021/04/01 11:18:52;;;;;;;31.52;15.07;;;;;;;21.20;38.90;102137.03;10492891;28;20048;-82
2021/04/01 11:23:52;;;;;;;26.95;12.90;;;;;;;21.45;37.54;102170.72;10518414;28;20049;-80
2021/04/01 11:28:53;;;;;;;25.65;9.60;;;;;;;21.23;37.83;102174.72;10514223;28;20044;-81
2021/04/01 11:33:55;;;;;;;16.15;6.85;;;;;;;21.41;37.34;102207.66;10521729;28;20036;-80
2021/04/01 11:38:58;;;;;;;14.82;5.82;;;;;;;21.40;36.84;102184.88;10504476;28;20480;-82
2021/04/01 11:43:58;;;;;;;16.70;6.18;;;;;;;21.16;37.10;102207.75;10503396;28;20044;-79
2021/04/01 11:49:00;;;;;;;15.75;6.47;;;;;;;20.76;37.37;102201.59;10499361;28;20480;-83
2021/04/01 11:54:05;;;;;;;16.30;5.45;;;;;;;20.86;37.95;102209.00;10515123;28;20036;-78
2021/04/01 11:59:16;;;;;;;11.70;4.88;;;;;;;20.57;38.49;102205.56;10504306;28;20092;-79
2021/04/01 12:04:19;;;;;;;9.83;4.00;;;;;;;20.61;40.00;102196.13;10521951;28;20448;-80
2021/04/01 12:09:19;;;;;;;7.38;3.38;;;;;;;20.90;38.25;102187.81;10517313;28;20105;-81
2021/04/01 12:14:20;;;;;;;10.77;3.60;;;;;;;20.90;39.13;102179.56;10538946;28;20084;-81
2021/04/01 12:19:20;;;;;;;9.38;3.65;;;;;;;21.32;37.84;102210.81;10530624;28;20481;-82
2021/04/01 12:24:21;;;;;;;10.15;3.92;;;;;;;21.22;38.07;102167.66;10536229;27;20050;-84
2021/04/01 12:29:22;;;;;;;11.00;3.20;;;;;;;21.23;38.46;102213.22;10559702;28;20036;-88
2021/04/01 12:34:28;;;;;;;10.27;2.50;;;;;;;20.85;39.87;102221.19;10548053;28;20023;-81
2021/04/01 12:39:33;;;;;;;14.35;3.33;;;;;;;21.06;39.72;102204.63;10551975;28;20035;-80
2021/04/01 12:44:39;;;;;;;12.93;2.85;;;;;;;21.10;40.27;102210.91;10531440;28;20156;-80
2021/04/01 12:49:40;;;;;;;12.77;3.13;;;;;;;21.26;40.22;102212.41;10541060;28;20054;-81
2021/04/01 12:54:50;;;;;;;15.60;3.58;;;;;;;21.44;40.09;102202.13;10522595;28;20186;-79
2021/04/01 12:59:55;;;;;;;9.50;3.15;;;;;;;21.52;40.12;102214.69;10552212;28;20074;-84
2021/04/01 13:05:00;;;;;;;12.25;3.17;;;;;;;21.63;40.14;102224.84;10558276;28;20041;-86
2021/04/01 13:10:31;;;;;;;13.50;2.85;;;;;;;21.44;40.25;102224.16;10507169;28;20040;-79
2021/04/01 13:15:21;;;;;;;17.00;2.88;;;;;;;21.51;39.13;102229.59;10475205;28;20041;-80
2021/04/01 13:20:22;;;;;;;11.05;3.28;;;;;;;21.28;39.39;102237.53;10490776;28;20044;-82
2021/04/01 13:25:23;;;;;;;12.25;3.10;;;;;;;21.00;41.13;102239.25;10505885;28;20488;-82
2021/04/01 13:30:24;;;;;;;13.93;3.17;;;;;;;21.08;41.61;102235.28;10474503;28;20412;-85
2021/04/01 13:35:34;;;;;;;10.50;3.17;;;;;;;21.05;39.33;102203.09;10504635;28;20097;-82
2021/04/01 13:40:38;;;;;;;10.50;2.38;;;;;;;20.89;40.04;102249.47;10505080;28;20036;-80
2021/04/01 13:45:39;;;;;;;10.38;2.63;;;;;;;20.47;40.22;102251.06;10478971;28;20024;-78
2021/04/01 13:50:48;;;;;;;9.10;2.22;;;;;;;20.60;39.77;102260.50;10503574;28;20062;-87
2021/04/01 13:55:55;;;;;;;9.88;3.00;;;;;;;20.36;40.68;102261.25;10489252;28;20044;-86
2021/04/01 14:11:39;;;;;;;;;;;;;;;20.02;40.95;102275.38;10495290;28;20755;-84
2021/04/01 14:16:42;;;;;;;51.72;4.90;;;;;;;20.00;41.19;102272.22;10515139;28;20048;-78
2021/04/01 14:21:43;;;;;;;7.72;2.28;;;;;;;19.50;41.54;102233.66;10497199;28;20397;-80
2021/04/01 14:27:03;;;;;;;15.07;2.95;;;;;;;19.50;42.34;102280.28;10516163;28;20051;-88
2021/04/01 14:32:05;;;;;;;8.27;2.10;;;;;;;19.20;42.44;102262.13;10482885;28;20044;-78
2021/04/01 14:37:06;;;;;;;15.68;2.85;;;;;;;18.75;46.11;102212.91;10526209;28;20043;-83
2021/04/01 14:42:11;;;;;;;15.73;2.42;;;;;;;19.00;46.58;102262.41;10509403;28;20035;-81
2021/04/01 14:47:12;;;;;;;13.00;3.05;;;;;;;18.83;46.27;102223.94;10508488;28;20039;-78
2021/04/01 14:52:13;;;;;;;13.15;2.40;;;;;;;19.00;43.69;102240.50;10516344;28;20044;-79
2021/04/01 14:57:15;;;;;;;12.10;2.67;;;;;;;19.06;45.48;102275.75;10484130;28;20047;-83
2021/04/01 15:02:17;;;;;;;9.38;2.22;;;;;;;18.63;44.22;102237.09;10485898;28;20048;-85
2021/04/01 15:07:22;;;;;;;13.10;2.75;;;;;;;18.11;44.96;102224.19;10511390;28;20415;-83
2021/04/01 15:12:23;;;;;;;14.60;2.90;;;;;;;18.35;45.07;102249.41;10543753;27;20062;-81
2021/04/01 15:17:23;;;;;;;11.88;2.85;;;;;;;18.45;44.26;102264.34;10544366;28;20059;-81
2021/04/01 15:22:24;;;;;;;16.45;2.75;;;;;;;18.26;45.32;102279.81;10527124;28;20081;-85
2021/04/01 15:27:24;;;;;;;13.88;3.03;;;;;;;18.34;43.90;102253.28;10529200;28;20024;-82
2021/04/01 15:32:25;;;;;;;10.75;3.10;;;;;;;18.22;43.97;102268.03;10545143;28;20074;-80
2021/04/01 15:37:26;;;;;;;9.95;2.35;;;;;;;18.01;43.43;102241.25;10545325;28;20040;-79
2021/04/01 15:42:27;;;;;;;12.43;2.58;;;;;;;17.96;41.95;102277.16;10555730;27;20482;-80
2021/04/01 15:47:28;;;;;;;10.60;3.00;;;;;;;17.38;42.41;102195.63;10559347;28;20116;-80
2021/04/01 15:52:28;;;;;;;13.68;3.88;;;;;;;17.61;41.67;102267.38;10559236;28;20064;-80
2021/04/01 15:57:29;;;;;;;11.65;2.75;;;;;;;17.61;42.37;102278.31;10559719;28;20031;-77
2021/04/01 16:02:29;;;;;;;10.35;2.13;;;;;;;17.60;41.59;102293.16;10516897;28;20036;-84
2021/04/01 16:07:30;;;;;;;14.20;2.85;;;;;;;17.58;40.64;102290.00;10527035;28;20071;-82
2021/04/01 16:12:30;;;;;;;10.95;2.85;;;;;;;17.42;39.54;102275.75;10562293;28;20036;-80
2021/04/01 16:17:31;;;;;;;15.80;2.70;;;;;;;17.73;40.11;102297.22;10554608;28;20051;-79
2021/04/01 16:22:32;;;;;;;9.38;2.35;;;;;;;17.59;39.81;102297.06;10536715;28;20238;-79
2021/04/01 16:27:32;;;;;;;20.25;3.80;;;;;;;17.39;40.10;102303.81;10526735;28;20039;-80
2021/04/01 16:32:34;;;;;;;14.25;3.30;;;;;;;16.83;41.38;102278.84;10532946;28;20054;-79
2021/04/01 16:37:37;;;;;;;10.32;3.15;;;;;;;16.86;41.87;102299.16;10557121;28;20039;-79
2021/04/01 16:42:42;;;;;;;10.55;3.38;;;;;;;16.51;42.63;102293.88;10530690;28;20130;-79
2021/04/01 16:47:43;;;;;;;13.55;2.92;;;;;;;16.32;41.74;102309.19;10560214;28;20062;-77
2021/04/01 16:52:48;;;;;;;14.00;2.85;;;;;;;16.10;42.06;102290.84;10557836;28;20040;-80
2021/04/01 16:57:50;;;;;;;20.50;3.08;;;;;;;16.02;41.86;102317.97;10554998;28;20140;-78
2021/04/01 17:02:50;;;;;;;10.97;3.00;;;;;;;15.57;41.97;102307.69;10537543;28;20019;-77
2021/04/01 17:07:52;;;;;;;17.23;2.72;;;;;;;15.86;42.08;102330.91;10528011;28;20817;-77
2021/04/01 17:12:52;;;;;;;12.70;2.60;;;;;;;15.52;44.65;102316.94;10547121;28;20085;-79
2021/04/01 17:17:53;;;;;;;15.77;2.85;;;;;;;15.37;44.55;102334.13;10517916;28;20152;-78
2021/04/01 17:22:54;;;;;;;14.00;2.70;;;;;;;15.18;46.22;102334.88;10537766;28;21910;-77
2021/04/01 17:27:55;;;;;;;14.48;3.05;;;;;;;14.79;46.82;102319.19;10517603;27;20481;-79
2021/04/01 17:32:55;;;;;;;14.32;2.75;;;;;;;14.89;46.13;102338.84;10536274;28;20137;-77
2021/04/01 17:37:56;;;;;;;16.35;2.53;;;;;;;14.23;48.18;102332.06;10558265;28;20043;-77
2021/04/01 17:42:56;;;;;;;11.35;2.70;;;;;;;14.14;48.20;102354.00;10542654;28;20035;-83
2021/04/01 17:47:57;;;;;;;10.93;2.65;;;;;;;13.85;48.37;102364.06;10558848;28;20047;-82
2021/04/01 17:52:58;;;;;;;13.05;2.28;;;;;;;13.47;49.30;102332.66;10601443;28;20043;-84
2021/04/01 17:58:00;;;;;;;16.40;2.00;;;;;;;13.71;47.54;102363.63;10514315;28;20375;-83
2021/04/01 18:29:09;;;;;;;11.98;2.28;;;;;;;12.49;46.96;102378.72;10532790;28;20088;-79
2021/04/01 18:39:48;;;;;;;19.83;4.00;;;;;;;12.05;51.77;102356.63;10533625;28;20495;-80
2021/04/01 18:44:54;;;;;;;20.42;3.97;;;;;;;12.09;56.84;102403.66;10552369;28;20039;-77
2021/04/01 18:49:57;;;;;;;21.75;4.22;;;;;;;12.17;58.65;102413.59;10556282;28;20551;-75
2021/04/01 18:55:09;;;;;;;25.15;4.10;;;;;;;11.53;60.51;102384.84;10549587;28;20073;-75
2021/04/01 19:00:26;;;;;;;23.83;4.32;;;;;;;11.51;60.96;102403.34;10524818;28;20032;-75
2021/04/01 19:05:32;;;;;;;17.75;4.38;;;;;;;11.42;62.25;102416.91;10539166;28;20042;-77
2021/04/01 19:10:51;;;;;;;21.35;4.57;;;;;;;10.97;62.81;102373.34;10519448;28;20058;-78
2021/04/01 19:26:48;;;;;;;20.83;4.18;;;;;;;10.91;64.66;102451.19;10539578;28;20039;-78
2021/04/01 19:31:49;;;;;;;20.38;4.38;;;;;;;10.64;65.58;102456.97;10528292;28;20040;-75
2021/04/01 19:36:49;;;;;;;28.10;4.40;;;;;;;10.48;66.97;102464.75;10557618;28;20039;-75
2021/04/01 19:41:56;;;;;;;23.15;5.38;;;;;;;10.03;67.64;102422.56;10529915;28;20040;-76
2021/04/01 19:46:57;;;;;;;20.90;4.47;;;;;;;10.02;68.90;102464.22;10541591;28;20034;-77
2021/04/01 19:51:58;;;;;;;31.80;6.28;;;;;;;9.71;68.14;102411.09;10532779;28;20480;-77
2021/04/01 19:57:02;;;;;;;23.13;5.85;;;;;;;9.51;69.64;102438.66;10508716;28;20055;-77
2021/04/01 20:02:03;;;;;;;21.13;4.65;;;;;;;9.52;71.12;102451.03;10544207;28;20380;-80
2021/04/01 20:07:04;;;;;;;28.35;5.05;;;;;;;9.31;71.36;102435.44;10555640;28;20044;-82
2021/04/01 20:12:06;;;;;;;24.13;4.30;;;;;;;9.34;70.51;102452.09;10543491;28;20637;-79
2021/04/01 20:17:07;;;;;;;16.08;3.40;;;;;;;9.61;70.26;102513.97;10523937;28;20023;-79
2021/04/01 20:22:09;;;;;;;13.68;3.90;;;;;;;9.43;70.31;102506.91;10547336;28;20166;-78
2021/04/01 20:27:10;;;;;;;12.88;4.63;;;;;;;9.05;70.97;102475.78;10534177;28;20146;-75
2021/04/01 20:32:10;;;;;;;16.83;4.80;;;;;;;9.21;71.71;102516.63;10512843;28;20108;-79
2021/04/01 20:37:11;;;;;;;13.15;3.83;;;;;;;8.78;72.25;102465.91;10537009;28;20031;-78
2021/04/01 20:42:11;;;;;;;12.30;4.10;;;;;;;9.14;72.41;102537.84;10535574;28;20031;-81
2021/04/01 20:47:12;;;;;;;17.10;4.10;;;;;;;8.74;72.52;102489.19;10536493;28;20590;-79
2021/04/01 20:52:14;;;;;;;9.88;3.63;;;;;;;8.97;72.07;102533.13;10553474;28;20039;-78
2021/04/01 20:57:14;;;;;;;11.07;2.92;;;;;;;8.96;71.63;102530.72;10543152;28;20042;-77
2021/04/01 21:02:14;;;;;;;8.73;2.75;;;;;;;8.76;72.50;102543.59;10545240;28;20050;-81
2021/04/01 21:07:15;;;;;;;6.60;2.85;;;;;;;8.72;71.11;102515.66;10535419;28;20032;-79
2021/04/01 21:12:15;;;;;;;11.23;2.88;;;;;;;8.24;71.55;102473.84;10552486;28;20060;-80
2021/04/01 21:17:16;;;;;;;11.20;2.90;;;;;;;8.20;73.16;102504.38;10550891;28;20031;-79
2021/04/01 21:22:16;;;;;;;12.27;3.47;;;;;;;8.38;73.25;102543.88;10556415;28;20400;-79
2021/04/01 21:27:17;;;;;;;16.15;3.22;;;;;;;8.28;74.57;102549.47;10521006;28;20043;-79
2021/04/01 21:32:17;;;;;;;12.63;3.38;;;;;;;8.22;74.37;102551.47;10538413;28;20035;-79
2021/04/01 21:37:17;;;;;;;13.18;3.28;;;;;;;8.24;73.59;102553.88;10551204;28;20038;-79
2021/04/01 21:42:18;;;;;;;9.00;2.97;;;;;;;8.26;73.63;102551.69;10557481;28;20054;-80
2021/04/01 21:47:18;;;;;;;12.80;3.75;;;;;;;7.46;74.91;102464.94;10555522;27;20031;-79
2021/04/01 21:52:19;;;;;;;10.05;2.88;;;;;;;8.01;74.85;102550.28;10555839;28;20042;-79
2021/04/01 21:57:19;;;;;;;8.68;3.50;;;;;;;7.87;76.39;102555.66;10535985;28;20036;-79
2021/04/01 22:02:20;;;;;;;9.15;3.20;;;;;;;7.54;76.30;102509.19;10529821;28;20024;-79
2021/04/01 22:07:20;;;;;;;9.18;3.10;;;;;;;7.75;75.73;102542.69;10546543;28;20024;-80
2021/04/01 22:12:21;;;;;;;11.85;3.42;;;;;;;7.61;76.88;102548.06;10537490;28;20048;-79
2021/04/01 22:17:21;;;;;;;10.38;3.47;;;;;;;7.67;77.33;102572.22;10544157;28;20035;-79
2021/04/01 22:22:22;;;;;;;10.85;3.17;;;;;;;7.47;77.51;102536.47;10561090;28;20028;-80
2021/04/01 22:27:22;;;;;;;12.18;4.38;;;;;;;7.65;77.63;102574.41;10551522;28;20067;-80
2021/04/01 22:32:23;;;;;;;13.23;3.67;;;;;;;7.54;78.25;102574.56;10529277;28;20404;-80
2021/04/01 22:37:23;;;;;;;12.18;3.17;;;;;;;7.56;77.59;102577.75;10558126;28;20216;-79
2021/04/01 22:42:24;;;;;;;13.27;3.88;;;;;;;7.36;78.85;102575.41;10557998;27;20438;-79
2021/04/01 22:47:25;;;;;;;11.02;3.42;;;;;;;7.30;79.29;102584.66;10543244;28;20826;-80
2021/04/01 22:52:25;;;;;;;13.43;3.65;;;;;;;7.02;79.86;102552.28;10540593;28;20042;-80
2021/04/01 22:57:28;;;;;;;10.57;3.70;;;;;;;7.04;79.97;102554.69;10555549;28;20087;-79
2021/04/01 23:02:28;;;;;;;12.05;3.60;;;;;;;7.23;80.00;102584.25;10560633;28;20128;-80
2021/04/01 23:07:31;;;;;;;8.02;3.22;;;;;;;7.11;80.54;102577.41;10546217;28;20883;-79
2021/04/01 23:12:32;;;;;;;9.18;3.33;;;;;;;7.06;81.08;102580.19;10534281;28;20055;-79
2021/04/01 23:17:32;;;;;;;15.10;4.75;;;;;;;6.85;81.72;102552.00;10523647;28;20036;-79
2021/04/01 23:22:34;;;;;;;11.10;3.35;;;;;;;6.93;82.46;102580.91;10565282;28;20043;-79
2021/04/01 23:27:35;;;;;;;20.37;3.77;;;;;;;6.25;82.44;102496.94;10545008;28;20036;-79
2021/04/01 23:32:36;;;;;;;8.45;4.00;;;;;;;6.56;82.74;102534.13;10563533;28;20487;-78
2021/04/01 23:37:37;;;;;;;15.65;5.10;;;;;;;6.58;82.96;102542.69;10544444;28;20054;-79
2021/04/01 23:42:38;;;;;;;12.82;3.55;;;;;;;6.67;83.27;102573.19;10540466;28;20050;-79
2021/04/01 23:47:39;;;;;;;15.82;4.20;;;;;;;6.53;83.82;102566.94;10537158;28;20118;-79
2021/04/01 23:52:39;;;;;;;12.55;3.70;;;;;;;6.33;83.38;102541.97;10546945;28;20035;-80
2021/04/01 23:57:40;;;;;;;9.18;3.95;;;;;;;6.56;83.99;102594.06;10522460;28;20054;-79
